createdAt,value
2023-03-24T00:01:25.620Z,14.10
2023-03-24T00:03:55.647Z,14.09
2023-03-24T00:06:26.825Z,14.07
2023-03-24T00:08:55.454Z,14.07
2023-03-24T00:11:25.511Z,14.09
2023-03-24T00:13:58.673Z,14.07
2023-03-24T00:16:27.515Z,14.01
2023-03-24T00:18:57.825Z,13.98
2023-03-24T00:21:26.741Z,13.96
2023-03-24T00:23:58.297Z,13.90
2023-03-24T00:26:28.375Z,13.87
2023-03-24T00:28:57.116Z,13.84
2023-03-24T00:31:26.144Z,13.83
2023-03-24T00:33:54.986Z,13.80
2023-03-24T00:36:29.021Z,13.79
2023-03-24T00:38:58.134Z,13.79
2023-03-24T00:41:27.524Z,13.81
2023-03-24T00:43:58.445Z,13.80
2023-03-24T00:46:30.961Z,13.79
2023-03-24T00:49:06.240Z,13.79
2023-03-24T00:51:38.704Z,13.82
2023-03-24T00:54:09.255Z,13.84
2023-03-24T00:56:40.679Z,13.84
2023-03-24T00:59:10.474Z,13.83
2023-03-24T01:01:41.242Z,13.83
2023-03-24T01:04:11.327Z,13.83
2023-03-24T01:06:41.299Z,13.83
2023-03-24T01:09:10.600Z,13.86
2023-03-24T01:11:41.774Z,13.89
2023-03-24T01:14:10.702Z,13.90
2023-03-24T01:16:39.227Z,13.90
2023-03-24T01:19:09.420Z,13.90
2023-03-24T01:21:38.788Z,13.89
2023-03-24T01:24:09.117Z,13.87
2023-03-24T01:26:37.890Z,13.85
2023-03-24T01:29:06.432Z,13.84
2023-03-24T01:31:35.001Z,13.84
2023-03-24T01:34:03.718Z,13.82
2023-03-24T01:36:32.516Z,13.83
2023-03-24T01:39:01.478Z,13.83
2023-03-24T01:41:34.811Z,13.81
2023-03-24T01:44:23.711Z,13.76
2023-03-24T01:46:52.655Z,13.72
2023-03-24T01:49:21.876Z,13.64
2023-03-24T01:51:54.530Z,13.59
2023-03-24T01:54:27.505Z,13.58
2023-03-24T01:57:01.262Z,13.55
2023-03-24T01:59:33.377Z,13.52
2023-03-24T02:02:04.023Z,13.49
2023-03-24T02:04:34.641Z,13.46
2023-03-24T02:07:09.420Z,13.44
2023-03-24T02:09:37.888Z,13.42
2023-03-24T02:12:08.429Z,13.42
2023-03-24T02:14:37.107Z,13.41
2023-03-24T02:17:37.317Z,13.38
2023-03-24T02:20:41.511Z,13.38
2023-03-24T02:23:48.251Z,13.35
2023-03-24T02:26:53.218Z,13.35
2023-03-24T02:30:06.713Z,13.33
2023-03-24T02:33:14.117Z,13.31
2023-03-24T02:36:15.438Z,13.28
2023-03-24T02:39:22.961Z,13.25
2023-03-24T02:42:07.548Z,13.24
2023-03-24T02:44:43.141Z,13.22
2023-03-24T02:47:17.787Z,13.14
2023-03-24T02:49:53.972Z,13.03
2023-03-24T02:52:32.955Z,12.99
2023-03-24T02:55:05.260Z,13.00
2023-03-24T02:57:39.667Z,12.98
2023-03-24T03:00:16.021Z,12.89
2023-03-24T03:02:54.038Z,12.83
2023-03-24T03:05:27.571Z,12.79
2023-03-24T03:08:00.134Z,12.74
2023-03-24T03:10:33.548Z,12.72
2023-03-24T03:13:08.820Z,12.65
2023-03-24T03:15:44.096Z,12.48
2023-03-24T03:18:25.539Z,12.28
2023-03-24T03:21:00.117Z,12.09
2023-03-24T03:23:33.620Z,12.10
2023-03-24T03:26:06.552Z,12.25
2023-03-24T03:28:43.200Z,12.30
2023-03-24T03:31:16.155Z,12.35
2023-03-24T03:33:49.806Z,12.40
2023-03-24T03:36:24.198Z,12.44
2023-03-24T03:39:01.752Z,12.48
2023-03-24T03:41:30.942Z,12.50
2023-03-24T03:44:04.952Z,12.51
2023-03-24T03:46:33.815Z,12.61
2023-03-24T03:49:02.404Z,12.67
2023-03-24T03:51:31.097Z,12.68
2023-03-24T03:54:03.408Z,12.65
2023-03-24T03:56:34.607Z,12.65
2023-03-24T03:59:04.814Z,12.70
2023-03-24T04:01:37.452Z,12.67
2023-03-24T04:04:38.337Z,12.66
2023-03-24T04:07:16.249Z,12.67
2023-03-24T04:09:56.126Z,12.57
2023-03-24T04:12:42.542Z,12.45
2023-03-24T04:15:25.699Z,12.39
2023-03-24T04:18:09.362Z,12.35
2023-03-24T04:20:46.763Z,12.25
2023-03-24T04:23:40.076Z,12.20
2023-03-24T04:26:16.184Z,12.09
2023-03-24T04:28:58.048Z,12.05
2023-03-24T04:31:34.245Z,12.04
2023-03-24T04:34:05.859Z,12.07
2023-03-24T04:36:42.680Z,12.11
2023-03-24T04:39:16.258Z,12.14
2023-03-24T04:41:47.380Z,12.15
2023-03-24T04:44:17.620Z,12.12
2023-03-24T04:46:47.581Z,12.10
2023-03-24T04:49:16.006Z,12.09
2023-03-24T04:51:45.785Z,12.08
2023-03-24T04:54:14.415Z,12.11
2023-03-24T04:56:47.621Z,12.18
2023-03-24T04:59:17.657Z,12.29
2023-03-24T05:01:49.807Z,12.40
2023-03-24T05:04:19.026Z,12.47
2023-03-24T05:06:49.668Z,12.52
2023-03-24T05:09:19.071Z,12.58
2023-03-24T05:11:47.408Z,12.61
2023-03-24T05:14:16.845Z,12.66
2023-03-24T05:16:45.465Z,12.68
2023-03-24T05:19:15.639Z,12.69
2023-03-24T05:21:44.190Z,12.73
2023-03-24T05:24:13.406Z,12.73
2023-03-24T05:26:41.731Z,12.75
2023-03-24T05:29:11.004Z,12.79
2023-03-24T05:31:39.343Z,12.82
2023-03-24T05:34:07.688Z,12.86
2023-03-24T05:36:38.416Z,12.89
2023-03-24T05:39:06.779Z,12.91
2023-03-24T05:41:35.463Z,12.93
2023-03-24T05:44:04.199Z,12.95
2023-03-24T05:46:32.822Z,12.96
2023-03-24T05:49:01.181Z,12.98
2023-03-24T05:51:29.509Z,12.99
2023-03-24T05:53:59.298Z,13.01
2023-03-24T05:56:28.223Z,13.03
2023-03-24T05:58:56.636Z,13.02
2023-03-24T06:01:25.392Z,13.02
2023-03-24T06:03:55.606Z,13.04
2023-03-24T06:06:24.102Z,13.05
2023-03-24T06:08:54.923Z,13.07
2023-03-24T06:11:24.606Z,13.08
2023-03-24T06:13:59.181Z,13.09
2023-03-24T06:16:27.690Z,13.11
2023-03-24T06:18:56.273Z,13.11
2023-03-24T06:21:33.141Z,13.15
2023-03-24T06:24:03.769Z,13.16
2023-03-24T06:26:33.801Z,13.17
2023-03-24T06:29:06.930Z,13.17
2023-03-24T06:31:37.302Z,13.21
2023-03-24T06:34:06.477Z,13.22
2023-03-24T06:36:35.677Z,13.25
2023-03-24T06:39:05.781Z,13.25
2023-03-24T06:41:35.664Z,13.27
2023-03-24T06:44:04.023Z,13.27
2023-03-24T06:46:32.538Z,13.29
2023-03-24T06:49:00.994Z,13.30
2023-03-24T06:51:29.505Z,13.36
2023-03-24T06:53:58.020Z,13.39
2023-03-24T06:56:27.432Z,13.45
2023-03-24T06:58:57.684Z,13.48
2023-03-24T07:01:26.343Z,13.51
2023-03-24T07:03:56.684Z,13.53
2023-03-24T07:14:01.294Z,13.63
2023-03-24T07:16:29.751Z,13.66
2023-03-24T07:18:58.171Z,13.70
2023-03-24T07:21:26.889Z,13.71
2023-03-24T07:23:55.676Z,13.73
2023-03-24T07:26:24.134Z,13.77
2023-03-24T07:28:52.571Z,13.82
2023-03-24T07:31:23.055Z,13.89
2023-03-24T07:33:51.883Z,13.96
2023-03-24T07:36:20.765Z,14.05
2023-03-24T07:38:49.850Z,14.12
2023-03-24T07:41:18.441Z,14.19
2023-03-24T07:43:46.875Z,14.25
2023-03-24T07:46:15.609Z,14.30
2023-03-24T07:48:45.787Z,14.36
2023-03-24T07:51:14.376Z,14.44
2023-03-24T07:53:45.752Z,14.49
2023-03-24T07:56:14.287Z,14.53
2023-03-24T07:58:42.674Z,14.54
2023-03-24T08:01:16.369Z,14.57
2023-03-24T08:03:49.345Z,14.60
2023-03-24T08:06:17.933Z,14.61
2023-03-24T08:08:46.309Z,14.58
2023-03-24T08:11:14.684Z,14.56
2023-03-24T08:13:43.114Z,14.58
2023-03-24T08:16:11.581Z,14.57
2023-03-24T08:18:40.022Z,14.52
2023-03-24T08:21:09.984Z,14.46
2023-03-24T08:23:38.440Z,14.44
2023-03-24T08:26:07.361Z,14.44
2023-03-24T08:28:35.972Z,14.42
2023-03-24T08:31:04.722Z,14.41
2023-03-24T08:33:33.142Z,14.38
2023-03-24T08:36:01.657Z,14.42
2023-03-24T08:38:31.740Z,14.47
2023-03-24T08:41:02.148Z,14.49
2023-03-24T08:43:32.362Z,14.52
2023-03-24T08:46:02.265Z,14.57
2023-03-24T08:48:32.859Z,14.59
2023-03-24T08:51:01.285Z,14.52
2023-03-24T08:53:31.105Z,14.48
2023-03-24T08:55:59.686Z,14.45
2023-03-24T08:58:28.093Z,14.50
2023-03-24T09:00:56.876Z,14.54
2023-03-24T09:03:26.209Z,14.57
2023-03-24T09:05:58.405Z,14.51
2023-03-24T09:08:28.726Z,14.48
2023-03-24T09:10:58.708Z,14.55
2023-03-24T09:13:27.360Z,14.62
2023-03-24T09:16:00.651Z,14.66
2023-03-24T09:18:29.887Z,14.72
2023-03-24T09:20:58.304Z,14.83
2023-03-24T09:23:29.195Z,14.93
2023-03-24T09:26:00.207Z,15.05
2023-03-24T09:28:28.752Z,15.16
2023-03-24T09:31:01.354Z,15.25
2023-03-24T09:33:30.643Z,15.30
2023-03-24T09:36:00.917Z,15.37
2023-03-24T09:38:29.937Z,15.45
2023-03-24T09:41:03.282Z,15.53
2023-03-24T09:43:39.728Z,15.62
2023-03-24T09:46:15.336Z,15.68
2023-03-24T09:48:48.298Z,15.76
2023-03-24T09:51:23.479Z,15.86
2023-03-24T09:53:58.014Z,15.92
2023-03-24T09:56:29.727Z,15.97
2023-03-24T09:59:05.474Z,16.01
2023-03-24T10:01:35.302Z,16.07
2023-03-24T10:04:05.264Z,16.09
2023-03-24T10:06:39.971Z,16.12
2023-03-24T10:09:19.254Z,16.14
2023-03-24T10:11:58.956Z,16.15
2023-03-24T10:14:42.426Z,16.16
2023-03-24T10:17:19.303Z,16.11
2023-03-24T10:19:59.314Z,16.03
2023-03-24T10:22:33.854Z,15.96
2023-03-24T10:25:09.754Z,15.91
2023-03-24T10:27:44.371Z,15.88
2023-03-24T10:30:18.120Z,15.81
2023-03-24T10:32:47.436Z,15.77
2023-03-24T10:35:19.305Z,15.70
2023-03-24T10:37:47.876Z,15.65
2023-03-24T10:40:18.678Z,15.58
2023-03-24T10:43:07.211Z,15.54
2023-03-24T10:45:42.054Z,15.49
2023-03-24T10:48:12.874Z,15.48
2023-03-24T10:50:44.624Z,15.48
2023-03-24T10:53:21.008Z,15.48
2023-03-24T10:55:50.747Z,15.51
2023-03-24T10:58:30.966Z,15.52
2023-03-24T11:01:01.755Z,15.57
2023-03-24T11:03:32.869Z,15.61
2023-03-24T11:06:02.939Z,15.67
2023-03-24T11:08:35.657Z,15.72
2023-03-24T11:11:15.757Z,15.79
2023-03-24T11:13:57.046Z,15.88
2023-03-24T11:16:29.937Z,15.96
2023-03-24T11:19:01.289Z,15.96
2023-03-24T11:21:30.719Z,15.93
2023-03-24T11:24:00.511Z,15.91
2023-03-24T11:26:32.145Z,15.82
2023-03-24T11:29:06.413Z,15.77
2023-03-24T11:31:39.343Z,15.75
2023-03-24T11:34:11.571Z,15.77
2023-03-24T11:36:45.430Z,15.78
2023-03-24T11:39:19.250Z,15.73
2023-03-24T11:42:12.137Z,15.67
2023-03-24T11:44:51.280Z,15.45
2023-03-24T11:47:25.724Z,15.42
2023-03-24T11:50:04.957Z,15.34
2023-03-24T11:52:37.331Z,15.29
2023-03-24T11:55:15.881Z,15.29
2023-03-24T11:57:52.524Z,15.21
2023-03-24T12:00:29.185Z,15.13
2023-03-24T12:03:33.599Z,15.10
2023-03-24T12:06:16.625Z,15.13
2023-03-24T12:08:59.238Z,15.14
2023-03-24T12:11:40.854Z,15.14
2023-03-24T12:14:10.536Z,15.20
2023-03-24T12:16:51.960Z,15.22
2023-03-24T12:19:43.611Z,15.25
2023-03-24T12:22:23.020Z,15.28
2023-03-24T12:25:16.054Z,15.27
2023-03-24T12:27:53.416Z,15.26
2023-03-24T12:30:43.528Z,15.28
2023-03-24T12:33:33.992Z,15.32
2023-03-24T12:36:17.130Z,15.36
2023-03-24T12:39:01.178Z,15.38
2023-03-24T12:41:43.317Z,15.47
2023-03-24T12:44:38.010Z,15.58
2023-03-24T12:47:19.898Z,15.67
2023-03-24T12:50:02.761Z,15.73
2023-03-24T12:53:05.010Z,15.78
2023-03-24T12:55:44.189Z,15.82
2023-03-24T12:58:18.138Z,15.85
2023-03-24T13:01:00.465Z,15.87
2023-03-24T13:03:35.291Z,15.85
2023-03-24T13:06:17.823Z,15.83
2023-03-24T13:09:00.770Z,15.84
2023-03-24T13:11:36.586Z,15.83
2023-03-24T13:14:08.136Z,15.82
2023-03-24T13:16:38.965Z,15.83
2023-03-24T13:19:17.714Z,15.89
2023-03-24T13:21:48.994Z,15.99
2023-03-24T13:24:20.124Z,16.07
2023-03-24T13:26:55.995Z,16.15
2023-03-24T13:29:49.930Z,16.26
2023-03-24T13:32:30.186Z,16.45
2023-03-24T13:35:02.917Z,16.69
2023-03-24T13:37:49.231Z,16.90
2023-03-24T13:40:23.601Z,17.03
2023-03-24T13:42:55.998Z,17.05
2023-03-24T13:45:43.925Z,17.01
2023-03-24T13:48:27.168Z,16.94
2023-03-24T13:51:00.325Z,16.92
2023-03-24T13:53:36.802Z,16.90
2023-03-24T13:56:08.114Z,16.90
2023-03-24T13:58:48.975Z,16.88
2023-03-24T14:01:32.789Z,16.84
2023-03-24T14:04:23.777Z,16.83
2023-03-24T14:06:53.647Z,16.81
2023-03-24T14:09:25.882Z,16.81
2023-03-24T14:12:13.014Z,16.81
2023-03-24T14:15:16.268Z,16.81
2023-03-24T14:17:47.356Z,16.84
2023-03-24T14:20:33.758Z,16.84
2023-03-24T14:23:04.417Z,16.84
2023-03-24T14:25:36.815Z,16.77
2023-03-24T14:28:22.325Z,16.72
2023-03-24T14:31:10.064Z,16.72
2023-03-24T14:33:39.060Z,16.68
2023-03-24T14:36:12.072Z,16.61
2023-03-24T14:38:43.258Z,16.61
2023-03-24T14:41:16.995Z,16.58
2023-03-24T14:44:01.609Z,16.54
2023-03-24T14:46:42.561Z,16.52
2023-03-24T14:49:23.510Z,16.47
2023-03-24T14:51:59.089Z,16.46
2023-03-24T14:54:34.934Z,16.44
2023-03-24T14:57:06.246Z,16.40
2023-03-24T14:59:46.676Z,16.36
2023-03-24T15:02:26.362Z,16.31
2023-03-24T15:05:26.207Z,16.28
2023-03-24T15:08:11.818Z,16.26
2023-03-24T15:10:44.916Z,16.19
2023-03-24T15:13:32.610Z,16.12
2023-03-24T15:16:04.634Z,16.01
2023-03-24T15:18:33.342Z,15.90
2023-03-24T15:21:14.369Z,15.78
2023-03-24T15:23:48.367Z,15.60
2023-03-24T15:26:18.514Z,15.48
2023-03-24T15:28:48.375Z,15.38
2023-03-24T15:31:17.289Z,15.35
2023-03-24T15:33:47.054Z,15.33
2023-03-24T15:36:18.817Z,15.30
2023-03-24T15:38:50.019Z,15.27
2023-03-24T15:41:20.109Z,15.23
2023-03-24T15:43:53.451Z,15.13
2023-03-24T15:46:27.048Z,15.06
2023-03-24T15:48:57.645Z,14.92
2023-03-24T15:51:48.826Z,14.50
2023-03-24T15:54:22.475Z,14.07
2023-03-24T15:57:18.943Z,13.82
2023-03-24T15:59:51.151Z,13.70
2023-03-24T16:02:29.179Z,13.63
2023-03-24T16:05:10.874Z,13.54
2023-03-24T16:07:42.489Z,13.50
2023-03-24T16:10:33.089Z,13.47
2023-03-24T16:13:14.448Z,13.44
2023-03-24T16:15:46.169Z,13.35
2023-03-24T16:18:21.587Z,13.25
2023-03-24T16:20:51.843Z,13.19
2023-03-24T16:23:20.509Z,13.09
2023-03-24T16:25:48.944Z,13.07
2023-03-24T16:28:19.906Z,13.04
2023-03-24T16:30:54.527Z,13.05
2023-03-24T16:33:23.420Z,13.05
2023-03-24T16:35:51.821Z,13.04
2023-03-24T16:38:21.768Z,12.99
2023-03-24T16:40:52.485Z,12.94
2023-03-24T16:43:21.348Z,12.85
2023-03-24T16:45:52.138Z,12.70
2023-03-24T16:48:20.720Z,12.58
2023-03-24T16:50:53.369Z,12.46
2023-03-24T16:53:22.122Z,12.40
2023-03-24T16:55:50.783Z,12.38
2023-03-24T16:58:19.294Z,12.32
2023-03-24T17:00:49.178Z,12.34
2023-03-24T17:03:19.369Z,12.35
2023-03-24T17:05:51.413Z,12.36
2023-03-24T17:08:20.241Z,12.35
2023-03-24T17:10:53.164Z,12.30
2023-03-24T17:13:23.106Z,12.20
2023-03-24T17:15:52.013Z,12.23
2023-03-24T17:18:22.011Z,12.22
2023-03-24T17:20:50.586Z,12.23
2023-03-24T17:23:19.576Z,12.28
2023-03-24T17:25:47.992Z,12.31
2023-03-24T17:28:17.888Z,12.33
2023-03-24T17:30:46.713Z,12.36
2023-03-24T17:33:15.856Z,12.34
2023-03-24T17:35:46.957Z,12.36
2023-03-24T17:38:16.674Z,12.35
2023-03-24T17:40:46.521Z,12.31
2023-03-24T17:43:15.507Z,12.22
2023-03-24T17:45:43.984Z,12.14
2023-03-24T17:48:12.341Z,12.09
2023-03-24T17:50:41.855Z,12.03
2023-03-24T17:53:13.639Z,11.98
2023-03-24T17:55:42.179Z,11.92
2023-03-24T17:58:10.700Z,11.85
2023-03-24T18:00:39.383Z,11.84
2023-03-24T18:03:07.972Z,11.85
2023-03-24T18:05:36.328Z,11.86
2023-03-24T18:08:07.184Z,11.86
2023-03-24T18:10:37.557Z,11.85
2023-03-24T18:13:06.890Z,11.85
2023-03-24T18:15:35.900Z,11.86
2023-03-24T18:18:04.872Z,11.87
2023-03-24T18:20:33.278Z,11.86
2023-03-24T18:23:02.022Z,11.86
2023-03-24T18:25:30.798Z,11.83
2023-03-24T18:28:00.632Z,11.82
2023-03-24T18:30:30.744Z,11.79
2023-03-24T18:33:02.067Z,11.77
2023-03-24T18:35:30.545Z,11.70
2023-03-24T18:37:59.066Z,11.66
2023-03-24T18:40:27.585Z,11.63
2023-03-24T18:42:56.099Z,11.61
2023-03-24T18:45:26.061Z,11.55
2023-03-24T18:47:54.457Z,11.52
2023-03-24T18:50:22.837Z,11.49
2023-03-24T18:52:51.260Z,11.44
2023-03-24T18:55:20.796Z,11.42
2023-03-24T18:57:49.205Z,11.39
2023-03-24T19:00:21.931Z,11.38
2023-03-24T19:02:52.327Z,11.38
2023-03-24T19:05:20.836Z,11.37
2023-03-24T19:07:52.053Z,11.38
2023-03-24T19:10:20.466Z,11.41
2023-03-24T19:12:48.896Z,11.46
2023-03-24T19:15:19.488Z,11.47
2023-03-24T19:17:47.849Z,11.48
2023-03-24T19:20:17.928Z,11.50
2023-03-24T19:22:46.623Z,11.49
2023-03-24T19:25:16.084Z,11.49
2023-03-24T19:27:44.850Z,11.48
2023-03-24T19:30:14.286Z,11.46
2023-03-24T19:32:42.740Z,11.42
2023-03-24T19:35:11.493Z,11.42
2023-03-24T19:37:49.027Z,11.45
2023-03-24T19:40:17.474Z,11.45
2023-03-24T19:42:46.715Z,11.48
2023-03-24T19:45:17.194Z,11.47
2023-03-24T19:47:46.960Z,11.45
2023-03-24T19:50:17.533Z,11.45
2023-03-24T19:52:46.092Z,11.45
2023-03-24T19:55:16.090Z,11.47
2023-03-24T19:57:47.588Z,11.47
2023-03-24T20:00:16.971Z,11.54
2023-03-24T20:02:45.790Z,11.56
2023-03-24T20:05:14.782Z,11.54
2023-03-24T20:07:43.252Z,11.52
2023-03-24T20:10:12.092Z,11.47
2023-03-24T20:12:41.972Z,11.39
2023-03-24T20:15:11.002Z,11.42
2023-03-24T20:17:40.627Z,11.54
2023-03-24T20:20:11.816Z,11.61
2023-03-24T20:22:42.068Z,11.60
2023-03-24T20:25:11.662Z,11.58
2023-03-24T20:27:42.094Z,11.62
2023-03-24T20:30:11.492Z,11.60
2023-03-24T20:32:40.433Z,11.65
2023-03-24T20:35:09.504Z,11.70
2023-03-24T20:37:38.159Z,11.70
2023-03-24T20:40:09.676Z,11.70
2023-03-24T20:42:38.579Z,11.67
2023-03-24T20:45:10.079Z,11.70
2023-03-24T20:47:38.524Z,11.77
2023-03-24T20:50:08.376Z,11.80
2023-03-24T20:52:36.854Z,11.79
2023-03-24T20:55:08.769Z,11.73
2023-03-24T20:57:38.034Z,11.74
2023-03-24T21:00:14.315Z,11.71
2023-03-24T21:02:43.809Z,11.63
2023-03-24T21:05:12.387Z,11.57
2023-03-24T21:07:43.909Z,11.54
2023-03-24T21:10:13.007Z,11.51
2023-03-24T21:12:52.755Z,11.51
2023-03-24T21:15:26.236Z,11.53
2023-03-24T21:17:54.852Z,11.55
2023-03-24T21:20:26.781Z,11.59
2023-03-24T21:22:55.913Z,11.56
2023-03-24T21:25:30.621Z,11.57
2023-03-24T21:28:00.024Z,11.56
2023-03-24T21:30:30.778Z,11.54
2023-03-24T21:33:00.788Z,11.54
2023-03-24T21:35:30.177Z,11.47
2023-03-24T21:38:09.527Z,11.43
2023-03-24T21:40:38.009Z,11.40
2023-03-24T21:43:06.949Z,11.36
2023-03-24T21:45:37.767Z,11.34
2023-03-24T21:48:12.977Z,11.35
2023-03-24T21:50:42.779Z,11.30
2023-03-24T21:53:15.054Z,11.27
2023-03-24T21:55:51.010Z,11.27
2023-03-24T21:58:20.478Z,11.32
2023-03-24T22:00:52.167Z,11.39
2023-03-24T22:03:21.793Z,11.39
2023-03-24T22:05:51.699Z,11.35
2023-03-24T22:08:22.756Z,11.37
2023-03-24T22:10:54.359Z,11.43
2023-03-24T22:13:23.109Z,11.41
2023-03-24T22:15:56.072Z,11.40
2023-03-24T22:18:24.736Z,11.42
2023-03-24T22:20:54.461Z,11.45
2023-03-24T22:23:23.185Z,11.47
2023-03-24T22:25:53.035Z,11.47
2023-03-24T22:28:21.921Z,11.46
2023-03-24T22:30:50.518Z,11.47
2023-03-24T22:33:20.360Z,11.43
2023-03-24T22:35:49.102Z,11.35
2023-03-24T22:38:18.003Z,11.27
2023-03-24T22:40:46.374Z,11.16
2023-03-24T22:43:14.735Z,11.09
2023-03-24T22:45:43.636Z,11.04
2023-03-24T22:48:12.758Z,11.01
2023-03-24T22:50:42.805Z,10.99
2023-03-24T22:53:11.965Z,10.99
2023-03-24T22:55:42.019Z,10.99
2023-03-24T22:58:13.668Z,10.97
2023-03-24T23:00:43.565Z,10.95
2023-03-24T23:03:12.213Z,10.92
2023-03-24T23:05:42.524Z,10.88
2023-03-24T23:08:11.776Z,10.83
2023-03-24T23:10:41.566Z,10.83
2023-03-24T23:13:10.530Z,10.83
2023-03-24T23:15:39.824Z,10.83
2023-03-24T23:18:08.444Z,10.77
2023-03-24T23:20:37.738Z,10.70
2023-03-24T23:23:09.551Z,10.66
2023-03-24T23:25:42.465Z,10.62
2023-03-24T23:28:11.133Z,10.61
2023-03-24T23:30:40.497Z,10.55
2023-03-24T23:33:09.311Z,10.45
2023-03-24T23:35:38.633Z,10.34
2023-03-24T23:38:09.145Z,10.27
2023-03-24T23:40:37.538Z,10.25
2023-03-24T23:43:08.241Z,10.31
2023-03-24T23:45:36.774Z,10.36
2023-03-24T23:48:06.907Z,10.37
2023-03-24T23:50:35.345Z,10.40
2023-03-24T23:53:03.746Z,10.40
2023-03-24T23:55:33.782Z,10.43
2023-03-24T23:58:02.265Z,10.46
